Terminal Aerodrome Forecast
Issued by NWS

Home | Current Version | Previous Version | Graphics & Text | Print | Product List | Glossary On
Versions: 1 2 3 4 5 6 7 8 9 10 11 12 13 14 15 16 17 18 19 20 21 22 23 24
000
FTUS43 KLSX 281328 AAA
TAFUIN
TAF AMD
KUIN 281328Z 2813/2912 10008KT P6SM OVC070
      TEMPO 2813/2816 -RA
     FM281800 12011KT P6SM OVC050
     FM290000 07006KT P6SM OVC020
     FM290600 03009KT P6SM VCSH OVC010=

USA.gov is the U.S. government's official web portal to all federal, state and local government web resources and services.